createdAt,value
2022-10-22T00:01:59.985Z,99817.63
2022-10-22T00:04:48.798Z,99806.38
2022-10-22T00:07:39.587Z,99800.97
2022-10-22T00:10:29.518Z,99807.31
2022-10-22T00:13:17.964Z,99793.59
2022-10-22T00:16:06.625Z,99750.44
2022-10-22T00:18:55.053Z,99790.34
2022-10-22T00:21:43.490Z,99793.50
2022-10-22T00:24:32.031Z,99796.91
2022-10-22T00:27:21.798Z,99826.59
2022-10-22T00:30:11.050Z,99837.00
2022-10-22T00:32:59.454Z,99844.53
2022-10-22T00:35:48.392Z,99839.38
2022-10-22T00:38:36.803Z,99831.28
2022-10-22T00:41:25.205Z,99843.94
2022-10-22T00:44:47.038Z,99840.19
2022-10-22T00:47:39.055Z,99847.56
2022-10-22T00:50:30.503Z,99840.78
2022-10-22T00:53:22.166Z,99838.06
2022-10-22T00:56:11.295Z,99843.47
2022-10-22T00:59:01.094Z,99832.69
2022-10-22T01:01:50.285Z,99825.06
2022-10-22T01:04:40.525Z,99823.88
2022-10-22T01:07:29.304Z,99822.47
2022-10-22T01:10:25.603Z,99821.06
2022-10-22T01:13:21.941Z,99816.50
2022-10-22T01:16:13.031Z,99831.13
2022-10-22T01:19:09.185Z,99824.44
2022-10-22T01:22:01.603Z,99838.38
2022-10-22T01:25:01.655Z,99836.97
2022-10-22T01:28:02.868Z,99832.09
2022-10-22T01:30:54.665Z,99840.84
2022-10-22T01:33:44.466Z,99838.50
2022-10-22T01:36:34.252Z,99829.22
2022-10-22T01:39:24.103Z,99844.59
2022-10-22T01:42:13.459Z,99876.03
2022-10-22T01:45:01.891Z,99887.84
2022-10-22T01:47:58.727Z,99885.63
2022-10-22T01:51:05.498Z,99906.50
2022-10-22T01:53:56.154Z,99783.16
2022-10-22T01:56:56.073Z,99905.09
2022-10-22T01:59:51.836Z,99912.03
2022-10-22T02:05:40.461Z,99913.25
2022-10-22T02:08:31.566Z,99881.47
2022-10-22T02:11:19.980Z,99875.38
2022-10-22T02:14:08.874Z,99865.03
2022-10-22T02:16:58.955Z,99863.03
2022-10-22T02:19:49.632Z,99843.91
2022-10-22T02:22:40.233Z,99841.56
2022-10-22T02:25:31.512Z,99841.53
2022-10-22T02:28:26.888Z,99812.66
2022-10-22T02:31:18.604Z,99810.78
2022-10-22T02:34:11.046Z,99807.03
2022-10-22T02:37:00.007Z,99813.03
2022-10-22T02:39:50.080Z,99797.25
2022-10-22T02:42:39.564Z,99804.22
2022-10-22T02:45:28.603Z,99770.50
2022-10-22T02:48:18.255Z,99798.00
2022-10-22T02:51:07.095Z,99766.75
2022-10-22T02:53:55.615Z,99798.00
2022-10-22T02:56:45.502Z,99799.19
2022-10-22T02:59:34.124Z,99799.09
2022-10-22T03:02:22.545Z,99809.28
2022-10-22T03:05:11.029Z,99816.81
2022-10-22T03:07:59.462Z,99809.88
2022-10-22T03:10:47.899Z,99811.88
2022-10-22T03:13:37.732Z,99800.16
2022-10-22T03:16:26.190Z,99771.72
2022-10-22T03:19:14.605Z,99761.94
2022-10-22T03:22:05.665Z,99759.06
2022-10-22T03:24:57.563Z,99820.69
2022-10-22T03:27:46.583Z,99825.84
2022-10-22T03:30:36.493Z,99835.47
2022-10-22T03:33:24.907Z,99840.75
2022-10-22T03:36:13.377Z,99839.47
2022-10-22T03:39:02.460Z,99832.94
2022-10-22T03:41:51.512Z,99843.16
2022-10-22T03:44:40.722Z,99840.94
2022-10-22T03:47:30.484Z,99850.69
2022-10-22T03:50:19.199Z,99852.00
2022-10-22T03:53:10.477Z,99861.63
2022-10-22T03:55:58.967Z,99873.94
2022-10-22T03:58:47.359Z,99882.16
2022-10-22T04:01:35.999Z,99877.97
2022-10-22T04:04:25.925Z,99874.06
2022-10-22T04:07:14.566Z,99870.31
2022-10-22T04:10:02.956Z,99890.88
2022-10-22T04:12:51.470Z,99896.34
2022-10-22T04:15:39.943Z,99911.97
2022-10-22T04:18:28.380Z,99902.22
2022-10-22T04:21:19.280Z,99899.28
2022-10-22T04:24:07.817Z,99911.53
2022-10-22T04:26:56.245Z,99902.94
2022-10-22T04:29:44.664Z,99891.09
2022-10-22T04:32:33.183Z,99890.44
2022-10-22T04:35:21.609Z,99911.63
2022-10-22T04:38:11.408Z,99906.88
2022-10-22T04:40:59.807Z,99917.28
2022-10-22T04:43:48.773Z,99910.13
2022-10-22T04:46:37.438Z,99912.25
2022-10-22T04:49:25.991Z,99907.78
2022-10-22T04:52:14.423Z,99916.47
2022-10-22T04:55:04.394Z,99922.31
2022-10-22T04:57:52.813Z,99928.88
2022-10-22T05:00:41.250Z,99928.97
2022-10-22T05:03:29.684Z,99932.75
2022-10-22T05:06:20.416Z,99923.34
2022-10-22T05:09:12.131Z,99932.72
2022-10-22T05:12:01.978Z,99933.41
2022-10-22T05:14:50.381Z,99927.28
2022-10-22T05:17:39.161Z,99937.03
2022-10-22T05:20:27.795Z,99938.31
2022-10-22T05:23:16.248Z,99931.75
2022-10-22T05:26:05.105Z,99931.66
2022-10-22T05:28:55.259Z,99942.13
2022-10-22T05:31:43.864Z,99948.81
2022-10-22T05:34:33.308Z,99959.28
2022-10-22T05:37:21.741Z,99932.00
2022-10-22T05:40:19.109Z,99977.63
2022-10-22T05:43:15.279Z,99993.66
2022-10-22T05:46:06.458Z,99991.41
2022-10-22T05:48:56.232Z,99994.47
2022-10-22T05:51:44.708Z,99992.63
2022-10-22T05:54:33.233Z,99979.50
2022-10-22T05:57:21.745Z,99987.97
2022-10-22T06:00:14.223Z,99996.88
2022-10-22T06:03:06.367Z,100008.91
2022-10-22T06:05:57.825Z,100009.59
2022-10-22T06:08:46.576Z,100011.31
2022-10-22T06:11:35.534Z,100016.13
2022-10-22T06:14:24.894Z,99988.75
2022-10-22T06:17:13.784Z,100024.81
2022-10-22T06:20:06.590Z,100019.41
2022-10-22T06:22:55.022Z,100027.88
2022-10-22T06:25:44.041Z,100024.34
2022-10-22T06:28:33.169Z,100025.19
2022-10-22T06:31:21.583Z,100035.19
2022-10-22T06:34:13.060Z,100041.41
2022-10-22T06:37:02.828Z,100033.41
2022-10-22T06:39:51.386Z,100044.72
2022-10-22T06:42:40.161Z,100050.09
2022-10-22T06:45:29.079Z,100052.69
2022-10-22T06:48:17.525Z,100065.06
2022-10-22T06:51:08.568Z,100060.63
2022-10-22T06:53:59.426Z,100060.84
2022-10-22T06:56:47.912Z,100070.16
2022-10-22T06:59:36.338Z,100071.56
2022-10-22T07:02:24.852Z,100077.31
2022-10-22T07:05:13.324Z,100089.75
2022-10-22T07:08:01.861Z,100086.97
2022-10-22T07:10:51.664Z,100086.88
2022-10-22T07:13:40.479Z,100090.53
2022-10-22T07:16:32.252Z,100098.97
2022-10-22T07:19:20.971Z,100101.44
2022-10-22T07:22:09.400Z,100103.47
2022-10-22T07:24:57.847Z,100108.63
2022-10-22T07:27:47.724Z,100112.16
2022-10-22T07:30:36.637Z,100118.69
2022-10-22T07:33:25.142Z,100127.75
2022-10-22T07:36:17.794Z,100133.53
2022-10-22T07:39:06.414Z,100137.66
2022-10-22T07:41:54.859Z,100138.56
2022-10-22T07:44:44.723Z,100133.38
2022-10-22T07:47:33.241Z,100149.50
2022-10-22T07:50:21.835Z,100142.66
2022-10-22T07:53:10.580Z,100135.44
2022-10-22T07:55:59.047Z,100139.75
2022-10-22T07:58:47.485Z,100120.22
2022-10-22T08:01:37.339Z,100141.06
2022-10-22T08:04:25.855Z,100147.06
2022-10-22T08:07:14.338Z,100144.34
2022-10-22T08:10:02.785Z,100133.84
2022-10-22T08:12:51.243Z,100143.38
2022-10-22T08:15:39.819Z,100139.56
2022-10-22T08:18:30.732Z,100153.25
2022-10-22T08:21:19.162Z,100153.34
2022-10-22T08:24:08.629Z,100152.06
2022-10-22T08:26:57.350Z,100165.50
2022-10-22T08:29:45.799Z,100172.81
2022-10-22T08:32:34.397Z,100176.81
2022-10-22T08:35:24.269Z,100143.06
2022-10-22T08:38:12.733Z,100184.81
2022-10-22T08:41:07.826Z,100182.16
2022-10-22T08:44:09.004Z,100168.19
2022-10-22T08:47:07.612Z,100207.34
2022-10-22T08:49:56.980Z,100193.09
2022-10-22T08:52:50.569Z,100180.31
2022-10-22T08:55:39.757Z,100189.34
2022-10-22T08:58:31.491Z,100195.03
2022-10-22T09:01:23.977Z,100201.75
2022-10-22T09:04:17.433Z,100195.59
2022-10-22T09:07:05.924Z,100195.66
2022-10-22T09:09:56.687Z,100171.94
2022-10-22T09:12:45.583Z,100204.53
2022-10-22T09:15:34.029Z,100204.94
2022-10-22T09:18:34.316Z,100201.31
2022-10-22T09:21:27.994Z,100216.75
2022-10-22T09:24:26.633Z,100187.38
2022-10-22T09:27:19.493Z,100228.69
2022-10-22T09:30:11.737Z,100223.50
2022-10-22T09:33:07.854Z,100225.81
2022-10-22T09:35:58.396Z,100225.09
2022-10-22T09:38:49.369Z,100228.34
2022-10-22T09:41:38.491Z,100230.78
2022-10-22T09:44:28.396Z,100221.00
2022-10-22T09:47:42.616Z,100242.25
2022-10-22T09:50:41.072Z,100239.59
2022-10-22T09:53:31.229Z,100238.97
2022-10-22T09:56:23.813Z,100239.59
2022-10-22T09:59:15.512Z,100240.97
2022-10-22T10:02:20.124Z,100243.44
2022-10-22T10:05:10.273Z,100251.13
2022-10-22T10:07:59.461Z,100143.81
2022-10-22T10:10:50.164Z,100245.59
2022-10-22T10:13:44.810Z,100244.56
2022-10-22T10:16:42.447Z,100238.09
2022-10-22T10:19:41.862Z,100247.97
2022-10-22T10:22:44.744Z,100240.88
2022-10-22T10:25:42.700Z,100250.41
2022-10-22T10:28:43.646Z,100255.59
2022-10-22T10:31:40.954Z,100250.22
2022-10-22T10:34:41.096Z,100248.91
2022-10-22T10:37:32.133Z,100253.28
2022-10-22T10:40:26.977Z,100254.66
2022-10-22T10:43:19.783Z,100263.66
2022-10-22T10:46:13.891Z,100263.13
2022-10-22T10:49:04.955Z,100260.16
2022-10-22T10:51:59.935Z,100263.13
2022-10-22T10:54:55.706Z,100257.16
2022-10-22T10:57:50.612Z,100254.16
2022-10-22T11:00:44.010Z,100246.22
2022-10-22T11:03:42.874Z,100247.88
2022-10-22T11:06:32.959Z,100255.50
2022-10-22T11:09:25.861Z,100251.13
2022-10-22T11:12:22.498Z,100253.91
2022-10-22T11:15:21.424Z,100238.09
2022-10-22T11:18:17.047Z,100255.00
2022-10-22T11:21:12.079Z,100242.69
2022-10-22T11:24:05.956Z,100250.06
2022-10-22T11:26:58.336Z,100109.28
2022-10-22T11:29:51.086Z,100253.88
2022-10-22T11:32:40.977Z,100249.47
2022-10-22T11:38:24.927Z,100237.19
2022-10-22T11:41:15.462Z,100249.72
2022-10-22T11:44:11.576Z,100254.38
2022-10-22T11:47:05.630Z,100219.94
2022-10-22T11:49:59.734Z,100241.75
2022-10-22T11:53:07.970Z,100240.94
2022-10-22T11:55:59.769Z,100219.66
2022-10-22T11:58:52.312Z,100230.00
2022-10-22T12:01:49.138Z,100243.94
2022-10-22T12:04:43.819Z,100239.28
2022-10-22T12:07:34.679Z,100236.31
2022-10-22T12:10:27.254Z,100230.00
2022-10-22T12:13:22.294Z,100223.75
2022-10-22T12:16:14.231Z,100237.94
2022-10-22T12:19:08.795Z,100234.69
2022-10-22T12:22:00.168Z,100229.75
2022-10-22T12:24:50.854Z,100216.91
2022-10-22T12:27:41.646Z,100222.34
2022-10-22T12:30:34.567Z,100215.28
2022-10-22T12:33:25.595Z,100216.63
2022-10-22T12:36:19.948Z,100209.53
2022-10-22T12:39:13.744Z,100212.53
2022-10-22T12:42:02.215Z,100208.69
2022-10-22T12:44:56.526Z,100209.25
2022-10-22T12:47:47.604Z,100204.06
2022-10-22T12:50:38.460Z,100165.91
2022-10-22T12:53:31.757Z,100208.16
2022-10-22T12:56:23.692Z,100209.25
2022-10-22T12:59:18.336Z,100180.69
2022-10-22T13:02:16.991Z,100090.41
2022-10-22T13:05:16.329Z,100208.97
2022-10-22T13:08:06.894Z,100204.91
2022-10-22T13:10:56.819Z,100197.25
2022-10-22T13:13:45.637Z,100205.19
2022-10-22T13:16:34.141Z,100203.84
2022-10-22T13:19:40.827Z,100197.31
2022-10-22T13:22:32.762Z,100199.75
2022-10-22T13:25:24.171Z,100204.09
2022-10-22T13:28:22.127Z,100200.81
2022-10-22T13:31:15.299Z,100191.00
2022-10-22T13:34:11.768Z,100197.03
2022-10-22T13:37:04.037Z,100193.19
2022-10-22T13:39:52.886Z,100193.47
2022-10-22T13:42:41.620Z,100193.78
2022-10-22T13:45:31.543Z,100188.34
2022-10-22T13:48:21.985Z,100182.59
2022-10-22T13:51:15.181Z,100190.00
2022-10-22T13:54:04.436Z,100194.63
2022-10-22T13:56:53.579Z,100167.66
2022-10-22T13:59:42.037Z,100190.28
2022-10-22T14:02:31.847Z,100186.47
2022-10-22T14:05:20.634Z,100189.75
2022-10-22T14:08:11.292Z,100180.19
2022-10-22T14:10:59.746Z,100179.66
2022-10-22T14:13:48.243Z,100182.09
2022-10-22T14:16:38.185Z,100186.75
2022-10-22T14:19:28.025Z,100169.81
2022-10-22T14:22:17.354Z,100184.00
2022-10-22T14:25:06.486Z,100178.28
2022-10-22T14:27:54.958Z,100179.38
2022-10-22T14:30:43.355Z,100186.47
2022-10-22T14:33:33.816Z,100189.75
2022-10-22T14:36:24.396Z,100179.91
2022-10-22T14:39:13.147Z,100177.22
2022-10-22T14:42:01.687Z,100182.66
2022-10-22T14:44:50.160Z,100172.03
2022-10-22T14:47:38.580Z,100174.44
2022-10-22T14:50:27.007Z,100151.22
2022-10-22T14:53:17.669Z,100178.56
2022-10-22T14:56:06.410Z,100179.91
2022-10-22T14:58:54.882Z,100179.91
2022-10-22T15:01:43.335Z,100167.56
2022-10-22T15:04:31.833Z,100189.94
2022-10-22T15:07:21.534Z,100188.28
2022-10-22T15:10:11.766Z,100185.53
2022-10-22T15:13:00.390Z,100182.28
2022-10-22T15:15:48.835Z,100173.28
2022-10-22T15:18:37.704Z,100186.63
2022-10-22T15:21:26.275Z,100190.69
2022-10-22T15:24:14.780Z,100188.25
2022-10-22T15:27:04.602Z,100181.94
2022-10-22T15:29:53.205Z,100178.63
2022-10-22T15:32:42.224Z,100174.00
2022-10-22T15:35:31.011Z,100154.84
2022-10-22T15:38:19.609Z,100169.56
2022-10-22T15:41:10.012Z,100169.53
2022-10-22T15:43:59.958Z,100165.38
2022-10-22T15:46:48.455Z,100170.41
2022-10-22T15:49:38.932Z,100141.34
2022-10-22T15:52:27.699Z,100177.47
2022-10-22T15:55:16.337Z,100172.56
2022-10-22T15:58:04.777Z,100174.59
2022-10-22T16:00:55.235Z,100178.75
2022-10-22T16:03:44.984Z,100177.25
2022-10-22T16:06:37.614Z,100174.75
2022-10-22T16:09:29.112Z,100161.50
2022-10-22T16:12:18.129Z,100166.84
2022-10-22T16:15:10.036Z,100064.66
2022-10-22T16:18:11.108Z,100171.13
2022-10-22T16:21:00.554Z,100172.06
2022-10-22T16:23:51.758Z,100173.75
2022-10-22T16:26:41.052Z,100165.59
2022-10-22T16:29:29.476Z,100176.94
2022-10-22T16:32:18.073Z,100167.03
2022-10-22T16:35:10.031Z,100179.94
2022-10-22T16:37:58.555Z,100182.88
2022-10-22T16:40:47.006Z,100181.31
2022-10-22T16:43:35.704Z,100175.13
2022-10-22T16:46:24.481Z,100181.09
2022-10-22T16:49:12.935Z,100197.72
2022-10-22T16:52:02.768Z,100197.19
2022-10-22T16:54:51.538Z,100190.03
2022-10-22T16:57:40.186Z,100194.38
2022-10-22T17:00:28.790Z,100198.41
2022-10-22T17:03:17.258Z,100198.44
2022-10-22T17:06:07.339Z,100210.69
2022-10-22T17:08:57.247Z,100208.91
2022-10-22T17:11:46.313Z,100210.47
2022-10-22T17:14:34.868Z,100197.78
2022-10-22T17:17:23.316Z,100193.53
2022-10-22T17:20:12.544Z,100181.19
2022-10-22T17:23:01.008Z,100230.47
2022-10-22T17:25:50.760Z,100236.66
2022-10-22T17:28:39.277Z,100219.13
2022-10-22T17:31:29.178Z,100240.75
2022-10-22T17:34:18.469Z,100227.88
2022-10-22T17:37:06.936Z,100234.00
2022-10-22T17:39:55.491Z,100243.22
2022-10-22T17:42:45.948Z,100241.81
2022-10-22T17:45:34.864Z,100222.25
2022-10-22T17:48:25.900Z,100239.59
2022-10-22T17:51:15.076Z,100227.59
2022-10-22T17:54:07.266Z,100231.38
2022-10-22T17:56:58.608Z,100239.25
2022-10-22T17:59:48.772Z,100213.53
2022-10-22T18:02:37.648Z,100230.31
2022-10-22T18:05:26.259Z,100239.34
2022-10-22T18:08:14.715Z,100218.06
2022-10-22T18:11:07.210Z,100230.06
2022-10-22T18:13:57.419Z,100229.22
2022-10-22T18:16:48.085Z,100230.59
2022-10-22T18:19:36.885Z,100229.28
2022-10-22T18:22:25.325Z,100217.72
2022-10-22T18:25:13.774Z,100228.72
2022-10-22T18:28:02.172Z,100219.97
2022-10-22T18:30:50.784Z,100223.19
2022-10-22T18:33:45.446Z,100222.38
2022-10-22T18:36:33.963Z,100218.91
2022-10-22T18:39:22.526Z,100221.50
2022-10-22T18:42:11.178Z,100213.03
2022-10-22T18:44:59.911Z,100211.84
2022-10-22T18:47:48.907Z,100204.47
2022-10-22T18:50:39.208Z,100212.47
2022-10-22T18:53:27.877Z,100210.00
2022-10-22T18:56:16.713Z,100185.16
2022-10-22T18:59:05.654Z,100206.34
2022-10-22T19:01:55.386Z,100155.09
2022-10-22T19:04:44.715Z,100218.09
2022-10-22T19:07:36.400Z,100192.06
2022-10-22T19:10:25.024Z,100221.59
2022-10-22T19:13:14.983Z,100218.97
2022-10-22T19:16:06.573Z,100225.63
2022-10-22T19:19:01.356Z,100229.78
2022-10-22T19:21:50.697Z,100223.72
2022-10-22T19:24:40.740Z,100220.34
2022-10-22T19:27:31.597Z,100237.31
2022-10-22T19:30:20.448Z,100202.34
2022-10-22T19:33:09.584Z,100201.28
2022-10-22T19:35:58.058Z,100200.25
2022-10-22T19:38:48.349Z,100207.75
2022-10-22T19:41:38.689Z,100210.63
2022-10-22T19:44:27.191Z,100202.47
2022-10-22T19:47:16.009Z,100213.38
2022-10-22T19:50:04.872Z,100206.34
2022-10-22T19:52:53.372Z,100203.19
2022-10-22T19:55:44.197Z,100214.88
2022-10-22T19:58:34.380Z,100198.44
2022-10-22T20:01:23.092Z,100212.94
2022-10-22T20:04:15.891Z,100200.63
2022-10-22T20:07:06.016Z,100200.56
2022-10-22T20:09:54.599Z,100209.19
2022-10-22T20:12:43.088Z,100199.75
2022-10-22T20:15:33.995Z,100190.91
2022-10-22T20:18:23.308Z,100207.88
2022-10-22T20:21:15.073Z,100221.22
2022-10-22T20:24:03.557Z,100227.81
2022-10-22T20:26:52.041Z,100230.56
2022-10-22T20:29:40.712Z,100232.13
2022-10-22T20:32:30.548Z,100209.78
2022-10-22T20:35:19.249Z,100213.66
2022-10-22T20:38:09.094Z,100204.09
2022-10-22T20:41:02.560Z,100206.06
2022-10-22T20:43:52.300Z,100196.41
2022-10-22T20:46:40.781Z,100205.34
2022-10-22T20:49:32.797Z,100206.41
2022-10-22T20:52:21.307Z,100180.41
2022-10-22T20:55:09.795Z,100201.56
2022-10-22T20:57:58.389Z,100194.56
2022-10-22T21:00:47.332Z,100192.31
2022-10-22T21:03:36.339Z,100191.34
2022-10-22T21:06:26.192Z,100183.75
2022-10-22T21:09:16.302Z,100176.63
2022-10-22T21:12:06.312Z,100199.13
2022-10-22T21:14:54.760Z,100164.81
2022-10-22T21:17:43.193Z,100193.47
2022-10-22T21:20:31.788Z,100199.09
2022-10-22T21:23:21.564Z,100185.50
2022-10-22T21:26:10.159Z,100184.31
2022-10-22T21:28:58.620Z,100183.41
2022-10-22T21:31:49.165Z,100185.09
2022-10-22T21:34:39.041Z,100185.72
2022-10-22T21:37:29.870Z,100184.06
2022-10-22T21:40:19.682Z,100179.41
2022-10-22T21:43:08.175Z,100173.03
2022-10-22T21:46:07.746Z,100184.31
2022-10-22T21:48:58.284Z,100187.16
2022-10-22T21:51:46.772Z,100184.91
2022-10-22T21:54:37.380Z,100190.38
2022-10-22T21:57:27.748Z,100181.94
2022-10-22T22:00:17.677Z,100183.88
2022-10-22T22:03:07.682Z,100182.41
2022-10-22T22:05:59.145Z,100186.44
2022-10-22T22:08:47.879Z,100187.16
2022-10-22T22:11:36.666Z,100188.03
2022-10-22T22:14:26.572Z,100189.63
2022-10-22T22:17:16.359Z,100193.16
2022-10-22T22:20:05.826Z,100197.97
2022-10-22T22:22:54.249Z,100190.81
2022-10-22T22:25:42.712Z,100170.47
2022-10-22T22:28:31.656Z,100187.75
2022-10-22T22:31:24.665Z,100186.38
2022-10-22T22:34:15.171Z,100166.72
2022-10-22T22:37:03.628Z,100174.41
2022-10-22T22:39:52.047Z,100173.03
2022-10-22T22:42:40.477Z,100176.38
2022-10-22T22:45:28.881Z,100173.03
2022-10-22T22:48:18.757Z,100175.09
2022-10-22T22:51:08.436Z,100165.81
2022-10-22T22:53:58.267Z,100157.81
2022-10-22T22:56:46.871Z,100163.78
2022-10-22T22:59:35.303Z,100163.22
2022-10-22T23:02:23.754Z,100150.84
2022-10-22T23:05:13.526Z,100155.44
2022-10-22T23:08:01.945Z,100157.91
2022-10-22T23:10:50.524Z,100153.63
2022-10-22T23:13:39.835Z,100158.00
2022-10-22T23:16:29.868Z,100155.09
2022-10-22T23:19:20.192Z,100153.88
2022-10-22T23:22:09.994Z,100148.31
2022-10-22T23:24:58.446Z,100143.53
2022-10-22T23:27:46.965Z,100149.78
2022-10-22T23:30:35.395Z,100149.38
2022-10-22T23:33:23.795Z,100151.41
2022-10-22T23:36:13.000Z,100153.50
2022-10-22T23:39:05.048Z,100151.41
2022-10-22T23:41:54.040Z,100142.56
2022-10-22T23:44:42.550Z,100144.63
2022-10-22T23:47:31.018Z,100045.22
2022-10-22T23:50:19.450Z,100145.06
2022-10-22T23:53:08.589Z,100133.50
2022-10-22T23:55:58.348Z,100133.28
2022-10-22T23:58:50.939Z,100137.03
